Time;durP1;ratioP1;P1;durP2;ratioP2;P2;SDS_P1;SDS_P2;PMS_P1;PMS_P2;Temp;Humidity;BMP_temperature;BMP_pressure;BME280_temperature;BME280_humidity;BME280_pressure;Samples;Min_cycle;Max_cycle;Signal;HPM_P1;HPM_P2
2021/06/02 00:00:35;;;;;;;14.55;9.75;;;;;;;13.02;60.04;100897.53;125345;1104;103140;-86
2021/06/02 00:03:18;;;;;;;11.57;9.10;;;;;;;13.01;60.31;100903.83;126309;1101;103174;-85
2021/06/02 00:06:00;;;;;;;11.77;8.80;;;;;;;13.02;60.04;100903.78;125355;1096;103371;-86
2021/06/02 00:08:28;;;;;;;14.43;9.70;;;;;;;13.02;59.53;100900.20;125076;1096;102980;-85
2021/06/02 00:10:57;;;;;;;14.08;10.18;;;;;;;13.04;59.47;100909.94;125113;1101;103165;-86
2021/06/02 00:13:24;;;;;;;15.10;10.70;;;;;;;13.07;59.11;100902.77;125336;1096;103200;-88
2021/06/02 00:15:52;;;;;;;14.70;10.40;;;;;;;13.07;58.93;100906.30;125460;1101;103142;-87
2021/06/02 00:18:20;;;;;;;13.97;11.47;;;;;;;13.03;58.89;100902.86;125516;1096;103109;-86
2021/06/02 00:20:48;;;;;;;12.23;9.68;;;;;;;13.02;59.34;100910.91;125490;1101;103182;-87
2021/06/02 00:23:16;;;;;;;11.78;9.45;;;;;;;13.01;59.40;100909.17;125531;1101;103203;-86
2021/06/02 00:25:43;;;;;;;10.58;9.48;;;;;;;13.03;58.98;100910.89;125437;1101;103538;-86
2021/06/02 00:28:12;;;;;;;24.65;10.15;;;;;;;13.04;58.61;100906.41;125238;1104;103116;-85
2021/06/02 00:30:54;;;;;;;17.15;11.85;;;;;;;13.05;58.19;100909.03;125518;1101;102997;-86
2021/06/02 00:33:22;;;;;;;18.93;10.60;;;;;;;13.03;58.40;100918.01;125420;1101;103176;-86
2021/06/02 00:35:49;;;;;;;11.55;10.25;;;;;;;13.03;58.73;100912.66;125055;1103;103115;-86
2021/06/02 00:38:17;;;;;;;11.70;10.40;;;;;;;12.94;58.55;100913.81;125457;1101;103434;-86
2021/06/02 00:40:50;;;;;;;11.07;9.33;;;;;;;12.93;59.32;100919.18;125266;1096;103052;-86
2021/06/02 00:43:19;;;;;;;14.88;10.03;;;;;;;12.92;59.29;100918.31;125657;1101;103174;-86
2021/06/02 00:45:47;;;;;;;16.37;11.00;;;;;;;12.88;59.30;100916.65;125090;1104;103146;-86
2021/06/02 00:48:28;;;;;;;13.35;10.50;;;;;;;12.86;58.87;100916.70;125421;1101;103257;-86
2021/06/02 00:50:56;;;;;;;16.53;10.97;;;;;;;12.86;58.67;100926.49;125352;1096;103087;-86
2021/06/02 00:53:24;;;;;;;12.38;9.78;;;;;;;12.84;58.25;100920.33;125596;1101;103078;-86
2021/06/02 00:55:51;;;;;;;15.70;10.73;;;;;;;12.79;58.58;100919.58;125180;1101;102962;-84
2021/06/02 00:58:24;;;;;;;11.75;9.88;;;;;;;12.77;58.65;100924.97;125220;1096;103135;-87
2021/06/02 01:00:53;;;;;;;12.13;10.53;;;;;;;12.80;58.39;100919.52;125301;1101;103237;-85
2021/06/02 01:03:27;;;;;;;11.80;9.47;;;;;;;12.80;58.59;100927.55;125531;1101;103083;-85
2021/06/02 01:05:56;;;;;;;14.25;9.75;;;;;;;12.76;58.56;100919.66;125676;1096;103594;-85
2021/06/02 01:08:24;;;;;;;12.67;9.57;;;;;;;12.74;58.60;100925.02;125602;1101;103078;-85
2021/06/02 01:10:52;;;;;;;15.40;10.47;;;;;;;12.74;58.54;100925.02;125423;1096;103173;-85
2021/06/02 01:13:20;;;;;;;10.98;9.55;;;;;;;12.74;58.52;100929.51;125394;1096;103185;-84
2021/06/02 01:15:50;;;;;;;13.93;9.93;;;;;;;12.65;58.61;100927.97;125044;1096;103013;-85
2021/06/02 01:18:19;;;;;;;15.13;10.03;;;;;;;12.63;58.85;100933.33;125805;1101;104030;-85
2021/06/02 01:20:48;;;;;;;12.07;9.70;;;;;;;12.62;58.85;100938.72;125474;1096;103032;-85
2021/06/02 01:23:29;;;;;;;13.93;9.77;;;;;;;12.65;58.92;100935.98;125245;1101;103528;-84
2021/06/02 01:25:57;;;;;;;10.80;9.50;;;;;;;12.63;58.97;100938.67;125240;1101;103164;-85
2021/06/02 01:28:25;;;;;;;14.37;9.83;;;;;;;12.61;59.56;100937.86;125490;1101;102961;-86
2021/06/02 01:30:52;;;;;;;14.40;9.97;;;;;;;12.51;59.22;100944.34;125574;1101;103054;-84
2021/06/02 01:33:49;;;;;;;15.63;10.40;;;;;;;12.47;59.74;100940.87;125230;1104;103597;-87
2021/06/02 01:36:24;;;;;;;10.18;8.45;;;;;;;12.50;59.27;100939.91;125361;1096;103088;-85
2021/06/02 01:39:19;;;;;;;10.40;9.40;;;;;;;12.50;59.25;100945.25;125236;1101;103598;-85
2021/06/02 01:41:54;;;;;;;10.65;9.58;;;;;;;12.49;59.28;100949.73;125289;1102;103134;-86
2021/06/02 01:44:24;;;;;;;11.40;8.97;;;;;;;12.49;59.34;100944.39;125537;1096;103217;-85
2021/06/02 01:47:26;;;;;;;11.73;9.85;;;;;;;12.49;59.15;100951.55;125462;1096;103074;-86
2021/06/02 01:50:16;;;;;;;11.65;10.28;;;;;;;12.47;58.81;100948.02;125366;1101;103055;-84
2021/06/02 01:53:21;;;;;;;13.23;10.35;;;;;;;12.50;59.08;100959.52;125086;1096;102894;-86
2021/06/02 01:56:08;;;;;;;10.93;9.43;;;;;;;12.56;58.84;100949.59;124899;1101;103471;-86
2021/06/02 01:59:21;;;;;;;11.00;8.93;;;;;;;12.64;59.00;100958.28;126425;1096;103080;-85
2021/06/02 02:02:20;;;;;;;15.40;10.00;;;;;;;12.64;58.87;100955.61;124913;1096;103094;-85
2021/06/02 02:05:27;;;;;;;10.33;8.97;;;;;;;12.58;59.82;100955.75;125272;1101;103227;-85
2021/06/02 02:08:22;;;;;;;11.67;9.93;;;;;;;12.59;59.75;100962.86;125482;1096;103080;-86
2021/06/02 02:10:52;;;;;;;13.45;9.08;;;;;;;12.62;59.38;100954.75;125146;1096;103042;-85
2021/06/02 02:13:50;;;;;;;15.55;10.43;;;;;;;12.62;59.39;100961.00;124906;1096;103211;-87
2021/06/02 02:16:26;;;;;;;10.83;8.80;;;;;;;12.63;59.82;100965.40;125018;1101;102973;-86
2021/06/02 02:19:24;;;;;;;10.87;9.47;;;;;;;12.65;59.45;100960.05;124905;1101;103145;-86
2021/06/02 02:21:59;;;;;;;13.10;11.20;;;;;;;12.66;59.28;100961.77;124813;1104;103151;-86
2021/06/02 02:25:04;;;;;;;14.60;10.28;;;;;;;12.70;59.73;100963.45;125078;1097;103512;-85
2021/06/02 02:28:11;;;;;;;11.77;10.37;;;;;;;12.70;59.77;100961.67;125403;1101;103200;-86
2021/06/02 02:31:04;;;;;;;11.27;8.83;;;;;;;12.77;59.70;100969.50;125327;1096;103030;-84
2021/06/02 02:33:50;;;;;;;13.73;10.13;;;;;;;12.75;59.29;100969.55;125607;1101;102955;-85
2021/06/02 02:36:42;;;;;;;11.50;9.50;;;;;;;12.68;60.00;100970.64;125521;1101;103055;-85
2021/06/02 02:39:10;;;;;;;9.83;8.10;;;;;;;12.66;59.82;100977.80;125481;1101;103003;-84
2021/06/02 02:42:02;;;;;;;15.73;9.65;;;;;;;12.69;59.88;100977.75;125459;1101;103056;-85
2021/06/02 02:44:52;;;;;;;11.33;9.03;;;;;;;12.64;60.10;100979.66;125443;1101;103164;-85
2021/06/02 02:48:01;;;;;;;13.80;8.80;;;;;;;12.61;60.14;100983.28;125202;1104;103007;-85
2021/06/02 02:50:39;;;;;;;10.05;8.48;;;;;;;12.60;60.13;100986.00;125349;1101;103145;-85
2021/06/02 02:53:29;;;;;;;10.35;9.05;;;;;;;12.56;59.82;100982.52;125491;1101;103155;-86
2021/06/02 02:56:02;;;;;;;9.65;8.68;;;;;;;12.61;59.89;100983.28;125380;1096;103052;-85
2021/06/02 02:59:00;;;;;;;10.93;8.73;;;;;;;12.61;59.57;100985.06;125443;1101;102965;-85
2021/06/02 03:01:30;;;;;;;10.45;8.65;;;;;;;12.64;59.12;100990.34;125532;1096;103123;-85
2021/06/02 03:04:24;;;;;;;13.47;10.03;;;;;;;12.63;59.08;100994.80;124924;1096;103803;-86
2021/06/02 03:07:06;;;;;;;9.50;8.50;;;;;;;12.64;59.45;100991.21;125240;1101;103052;-85
2021/06/02 03:09:40;;;;;;;10.57;8.43;;;;;;;12.62;59.69;100995.73;125402;1096;103307;-84
2021/06/02 03:12:18;;;;;;;10.95;8.63;;;;;;;12.67;59.46;100998.27;125453;1096;103048;-85
2021/06/02 03:15:08;;;;;;;14.53;8.30;;;;;;;12.70;59.48;101001.75;125178;1101;103065;-84
2021/06/02 03:17:57;;;;;;;9.45;8.40;;;;;;;12.77;59.13;100999.80;125200;1101;103948;-85
2021/06/02 03:20:35;;;;;;;17.33;9.47;;;;;;;12.82;58.95;101003.23;126166;1096;102965;-86
2021/06/02 03:23:16;;;;;;;10.78;9.18;;;;;;;12.88;58.95;101005.73;125083;1104;103258;-85
2021/06/02 03:26:10;;;;;;;12.75;8.15;;;;;;;12.84;59.30;101006.73;125128;1099;103128;-85
2021/06/02 03:29:00;;;;;;;9.43;7.80;;;;;;;12.87;58.94;101006.67;125328;1104;103265;-85
2021/06/02 03:31:49;;;;;;;13.97;8.90;;;;;;;12.86;58.14;101001.34;125098;1097;103256;-84
2021/06/02 03:34:28;;;;;;;12.90;8.60;;;;;;;12.87;58.25;101001.33;125096;1104;103236;-87
2021/06/02 03:37:14;;;;;;;12.55;9.23;;;;;;;12.93;58.27;101007.41;125197;1099;103238;-86
2021/06/02 03:40:23;;;;;;;11.40;8.47;;;;;;;12.97;58.25;101014.42;125088;1104;103240;-86
2021/06/02 03:43:23;;;;;;;9.37;7.83;;;;;;;13.03;58.43;101007.14;125157;1104;103405;-86
2021/06/02 03:46:06;;;;;;;10.83;8.17;;;;;;;13.11;59.01;101016.75;125084;1099;103222;-86
2021/06/02 03:49:05;;;;;;;11.63;8.23;;;;;;;13.28;58.71;101018.97;125151;1105;103109;-86
2021/06/02 03:51:51;;;;;;;13.00;7.83;;;;;;;13.35;58.05;101021.41;125337;1105;103220;-85
2021/06/02 03:54:26;;;;;;;11.40;8.38;;;;;;;13.43;57.86;101013.20;126210;1104;103023;-85
2021/06/02 03:57:45;;;;;;;9.95;7.90;;;;;;;13.51;57.10;101012.99;124773;1104;103265;-84
2021/06/02 04:00:18;;;;;;;10.53;8.83;;;;;;;13.63;57.03;101006.41;124936;1104;103400;-86
2021/06/02 04:03:05;;;;;;;12.45;9.48;;;;;;;13.73;56.98;101015.93;125826;1101;103200;-86
2021/06/02 04:05:59;;;;;;;15.05;8.75;;;;;;;13.78;56.84;101021.13;125422;1101;103785;-86
2021/06/02 04:08:41;;;;;;;15.30;8.30;;;;;;;13.78;57.06;101032.73;125495;1101;103068;-85
2021/06/02 04:11:27;;;;;;;12.37;8.17;;;;;;;13.79;57.03;101030.92;125513;1101;103078;-85
2021/06/02 04:14:00;;;;;;;11.40;8.05;;;;;;;13.84;56.79;101029.00;125220;1101;103348;-84
2021/06/02 04:16:37;;;;;;;10.50;7.95;;;;;;;13.94;57.04;101032.27;125801;1101;103122;-85
2021/06/02 04:19:15;;;;;;;11.75;8.35;;;;;;;13.97;56.99;101037.55;125533;1101;103062;-85
2021/06/02 04:21:45;;;;;;;8.53;7.00;;;;;;;14.00;56.41;101040.13;125458;1101;103113;-86
2021/06/02 04:24:15;;;;;;;8.05;7.25;;;;;;;14.04;55.41;101037.29;125403;1101;103190;-85
2021/06/02 04:26:43;;;;;;;11.77;8.03;;;;;;;14.14;56.14;101037.01;125270;1096;103668;-85
2021/06/02 04:29:13;;;;;;;10.75;8.75;;;;;;;14.21;56.25;101036.77;125586;1101;103123;-87
2021/06/02 04:31:57;;;;;;;9.60;7.30;;;;;;;14.27;55.95;101046.41;125576;1101;103083;-85
2021/06/02 04:34:26;;;;;;;10.13;6.73;;;;;;;14.35;54.94;101052.44;125202;1104;103248;-84
2021/06/02 04:36:59;;;;;;;17.47;13.47;;;;;;;14.40;54.57;101046.91;126519;1101;103085;-85
2021/06/02 04:39:28;;;;;;;12.03;8.57;;;;;;;14.45;54.89;101058.38;125288;1101;103129;-84
2021/06/02 04:41:59;;;;;;;11.73;7.65;;;;;;;14.52;54.63;101059.91;125027;1102;103666;-81
2021/06/02 04:44:40;;;;;;;13.40;7.65;;;;;;;14.63;54.36;101061.38;124880;1104;103339;-84
2021/06/02 04:47:08;;;;;;;8.15;5.93;;;;;;;14.67;53.33;101068.42;124945;1104;103249;-83
2021/06/02 04:49:49;;;;;;;7.68;6.35;;;;;;;14.71;53.99;101067.39;125198;1100;103573;-83
2021/06/02 04:52:41;;;;;;;12.10;7.03;;;;;;;14.77;54.14;101068.98;124968;1099;103064;-82
2021/06/02 04:55:27;;;;;;;9.53;6.27;;;;;;;14.82;53.05;101069.72;124957;1100;103251;-83
2021/06/02 04:58:15;;;;;;;16.27;6.00;;;;;;;14.85;51.43;101077.68;124981;1104;103529;-82
2021/06/02 05:00:57;;;;;;;8.80;6.65;;;;;;;14.88;52.63;101075.75;125034;1104;103218;-84
2021/06/02 05:04:10;;;;;;;8.70;6.93;;;;;;;14.94;52.40;101071.11;125059;1104;103141;-85
2021/06/02 05:06:56;;;;;;;6.93;6.23;;;;;;;14.95;51.93;101071.06;125066;1104;103140;-80
2021/06/02 05:10:00;;;;;;;11.03;7.13;;;;;;;14.99;52.19;101083.43;125142;1104;103010;-84
2021/06/02 05:13:06;;;;;;;8.35;6.28;;;;;;;15.10;53.11;101083.09;124934;1104;103261;-85
2021/06/02 05:16:15;;;;;;;7.80;6.17;;;;;;;15.18;52.39;101086.39;125130;1099;103408;-86
2021/06/02 05:19:34;;;;;;;10.40;7.50;;;;;;;15.25;52.18;101095.10;124920;1099;103463;-85
2021/06/02 05:22:25;;;;;;;5.23;4.73;;;;;;;15.30;50.40;101092.23;125108;1101;103484;-86
2021/06/02 05:24:58;;;;;;;10.15;6.70;;;;;;;15.25;51.77;101103.15;125591;1096;103349;-85
2021/06/02 05:28:06;;;;;;;8.30;5.50;;;;;;;15.23;52.01;101106.81;125557;1101;103224;-83
2021/06/02 05:31:02;;;;;;;9.17;6.33;;;;;;;15.28;51.88;101111.09;125418;1096;103217;-83
2021/06/02 05:33:51;;;;;;;7.55;5.75;;;;;;;15.34;51.93;101112.67;125426;1101;103417;-86
2021/06/02 05:36:47;;;;;;;13.40;5.68;;;;;;;15.40;51.09;101115.16;125475;1101;103059;-85
2021/06/02 05:39:36;;;;;;;8.08;5.95;;;;;;;15.51;51.34;101121.03;125059;1104;104138;-84
2021/06/02 05:42:28;;;;;;;8.57;5.93;;;;;;;15.65;50.62;101125.03;124719;1104;103275;-83
2021/06/02 05:44:58;;;;;;;8.23;5.50;;;;;;;15.76;51.34;101130.88;125322;1101;103567;-84
2021/06/02 05:47:50;;;;;;;7.60;4.95;;;;;;;15.86;50.01;101129.66;125718;1101;103211;-85
2021/06/02 05:50:42;;;;;;;7.08;5.70;;;;;;;15.94;50.30;101132.06;126634;1101;103172;-84
2021/06/02 05:53:29;;;;;;;5.87;5.20;;;;;;;16.05;49.68;101132.53;125114;1102;103169;-85
2021/06/02 05:55:59;;;;;;;8.78;4.78;;;;;;;16.17;49.95;101130.33;125072;1101;103216;-88
2021/06/02 05:58:49;;;;;;;7.47;4.60;;;;;;;16.23;49.67;101134.58;125109;1101;103046;-84
2021/06/02 06:01:53;;;;;;;7.50;4.50;;;;;;;16.28;49.43;101127.22;125353;1096;103160;-84
2021/06/02 06:04:32;;;;;;;7.57;5.07;;;;;;;16.38;49.91;101128.59;125406;1102;103088;-86
2021/06/02 06:07:22;;;;;;;10.20;5.50;;;;;;;16.50;50.38;101136.20;125676;1101;103065;-86
2021/06/02 06:09:58;;;;;;;6.85;4.78;;;;;;;16.63;50.67;101144.64;125445;1101;103109;-86
2021/06/02 06:12:45;;;;;;;9.48;5.13;;;;;;;16.72;49.94;101135.34;125249;1096;103182;-85
2021/06/02 06:15:33;;;;;;;8.57;5.27;;;;;;;16.79;48.85;101134.14;125160;1097;103194;-84
2021/06/02 06:18:24;;;;;;;8.28;4.55;;;;;;;16.85;49.02;101136.59;125168;1101;102203;-85
2021/06/02 06:21:10;;;;;;;9.28;5.23;;;;;;;16.93;49.62;101133.63;125016;1103;103136;-84
2021/06/02 06:23:49;;;;;;;8.83;5.30;;;;;;;17.06;49.12;101131.32;125132;1096;103244;-85
2021/06/02 06:26:38;;;;;;;8.10;5.50;;;;;;;17.13;48.54;101131.94;125200;1096;103234;-84
2021/06/02 06:29:27;;;;;;;5.80;4.53;;;;;;;17.24;48.59;101137.73;125443;1096;103101;-85
2021/06/02 06:31:55;;;;;;;7.23;4.17;;;;;;;17.30;48.40;101142.86;125514;1101;103131;-85
2021/06/02 06:34:27;;;;;;;9.33;4.28;;;;;;;17.37;48.29;101147.03;125514;1096;103138;-83
2021/06/02 06:36:57;;;;;;;11.23;5.00;;;;;;;17.38;47.06;101138.02;125431;1101;103079;-86
2021/06/02 06:39:52;;;;;;;9.20;4.10;;;;;;;17.40;46.12;101143.33;127163;1101;103059;-87
2021/06/02 06:42:22;;;;;;;6.87;3.60;;;;;;;17.49;46.78;101140.24;125553;1101;103093;-84
2021/06/02 06:45:17;;;;;;;6.38;4.30;;;;;;;17.60;45.60;101145.16;125126;1096;103162;-85
2021/06/02 06:47:47;;;;;;;7.48;4.63;;;;;;;17.62;45.17;101137.00;127559;1104;100806;-83
2021/06/02 06:50:15;;;;;;;7.53;4.33;;;;;;;17.75;46.26;101142.73;127862;1101;101701;-85
2021/06/02 06:52:50;;;;;;;6.80;4.27;;;;;;;17.87;44.11;101140.38;125734;1101;103200;-84
2021/06/02 06:55:20;;;;;;;4.20;3.80;;;;;;;17.93;44.02;101138.39;125506;1101;103097;-85
2021/06/02 06:57:49;;;;;;;6.57;4.10;;;;;;;17.97;44.11;101143.55;125501;1096;103086;-84
2021/06/02 07:00:32;;;;;;;6.68;4.13;;;;;;;18.06;44.75;101147.66;125131;1105;103122;-84
2021/06/02 07:03:16;;;;;;;6.18;3.75;;;;;;;18.16;42.80;101140.02;126768;1104;101348;-84
2021/06/02 07:05:44;;;;;;;5.83;3.37;;;;;;;18.27;44.28;101147.61;125095;1099;103059;-84
2021/06/02 07:08:13;;;;;;;5.77;3.50;;;;;;;18.37;43.89;101154.33;125003;1104;103136;-84
2021/06/02 07:10:41;;;;;;;6.13;3.00;;;;;;;18.48;43.52;101153.81;125113;1104;103416;-84
2021/06/02 07:13:10;;;;;;;3.60;2.77;;;;;;;18.60;41.86;101149.66;125142;1100;103240;-83
2021/06/02 07:15:38;;;;;;;6.07;4.13;;;;;;;18.74;43.42;101135.48;127373;1104;101348;-84
2021/06/02 07:18:11;;;;;;;4.70;3.70;;;;;;;18.88;42.77;101144.69;127506;1104;101614;-82
2021/06/02 07:20:41;;;;;;;6.70;4.10;;;;;;;18.92;42.25;101149.95;125603;1104;103735;-83
2021/06/02 07:23:09;;;;;;;6.47;3.50;;;;;;;18.96;42.49;101148.84;124929;1099;103185;-83
2021/06/02 07:25:37;;;;;;;4.58;3.68;;;;;;;18.96;40.94;101156.95;125258;1104;103254;-82
2021/06/02 07:28:11;;;;;;;6.30;3.30;;;;;;;19.04;42.45;101158.30;125134;1104;103436;-84
2021/06/02 07:30:53;;;;;;;6.18;2.93;;;;;;;19.17;41.51;101163.11;127399;1104;102354;-81
2021/06/02 07:33:21;;;;;;;4.50;2.98;;;;;;;19.29;41.42;101161.62;127504;1104;101032;-81
2021/06/02 07:35:49;;;;;;;6.00;3.23;;;;;;;19.40;41.70;101161.06;127565;1104;100897;-82
2021/06/02 07:38:16;;;;;;;8.10;3.27;;;;;;;19.45;39.73;101162.57;127110;1101;103213;-81
2021/06/02 07:40:43;;;;;;;6.37;3.20;;;;;;;19.50;38.91;101162.32;124488;1101;103252;-80
2021/06/02 07:43:11;;;;;;;5.77;2.30;;;;;;;19.53;38.38;101154.94;125231;1096;103009;-82
2021/06/02 07:45:38;;;;;;;3.90;2.50;;;;;;;19.58;37.03;101153.82;126322;1101;103091;-84
2021/06/02 07:48:10;;;;;;;4.33;2.63;;;;;;;19.65;37.66;101158.83;124928;1096;103219;-83
2021/06/02 07:50:38;;;;;;;5.23;2.70;;;;;;;19.81;37.16;101160.77;125396;1101;103084;-83
2021/06/02 07:53:24;;;;;;;5.28;2.35;;;;;;;19.90;36.48;101160.28;125160;1104;103811;-82
2021/06/02 07:55:58;;;;;;;6.40;2.95;;;;;;;20.03;36.32;101164.08;126337;1104;102976;-82
2021/06/02 07:58:41;;;;;;;6.18;2.20;;;;;;;20.13;34.54;101164.44;124913;1104;103349;-83
2021/06/02 08:01:09;;;;;;;3.90;2.07;;;;;;;20.18;33.36;101161.50;125042;1104;103151;-84
2021/06/02 08:03:37;;;;;;;5.03;2.20;;;;;;;20.19;33.26;101161.41;125038;1104;103062;-85
2021/06/02 08:06:04;;;;;;;6.10;2.20;;;;;;;20.30;32.19;101160.83;125094;1099;103010;-82
2021/06/02 08:08:49;;;;;;;3.43;1.97;;;;;;;20.46;31.17;101160.84;125166;1104;103104;-82
2021/06/02 08:11:17;;;;;;;3.40;2.27;;;;;;;20.54;32.30;101157.72;124833;1104;103368;-84
2021/06/02 08:13:58;;;;;;;3.00;2.50;;;;;;;20.68;30.14;101174.03;127503;1104;101143;-83
2021/06/02 08:16:46;;;;;;;4.63;2.43;;;;;;;20.76;32.73;101170.92;125481;1104;103302;-82
2021/06/02 08:19:13;;;;;;;4.88;2.43;;;;;;;20.73;32.13;101171.11;125677;1099;103134;-83
2021/06/02 08:21:41;;;;;;;4.53;3.10;;;;;;;20.83;33.18;101168.74;125120;1100;103425;-84
2021/06/02 08:24:09;;;;;;;2.68;2.05;;;;;;;20.97;33.46;101173.38;125081;1104;103273;-81
2021/06/02 08:26:50;;;;;;;6.75;2.88;;;;;;;20.95;33.81;101178.89;126296;1104;103285;-83
2021/06/02 08:29:18;;;;;;;3.90;3.20;;;;;;;20.99;35.21;101174.15;125031;1100;103268;-83
2021/06/02 08:31:45;;;;;;;9.03;2.60;;;;;;;21.05;34.62;101171.09;124834;1099;103355;-82
2021/06/02 08:34:13;;;;;;;4.25;2.95;;;;;;;21.02;33.91;101168.58;125140;1104;103884;-84
2021/06/02 08:36:41;;;;;;;6.00;3.03;;;;;;;21.00;34.13;101167.78;125016;1101;103486;-85
2021/06/02 08:39:09;;;;;;;6.07;2.63;;;;;;;21.01;33.60;101164.98;127772;1101;101231;-84
2021/06/02 08:41:39;;;;;;;5.93;2.60;;;;;;;21.05;34.03;101157.55;127538;1104;101547;-83
2021/06/02 08:44:08;;;;;;;7.23;3.53;;;;;;;20.98;33.79;101154.33;127571;1096;103213;-84
2021/06/02 08:46:36;;;;;;;5.70;2.43;;;;;;;21.07;34.06;101150.19;125931;1101;103684;-84
2021/06/02 08:49:11;;;;;;;4.35;2.18;;;;;;;21.13;34.22;101157.11;125316;1096;103091;-84
2021/06/02 08:51:38;;;;;;;4.57;2.97;;;;;;;21.08;34.38;101143.82;125487;1096;103061;-82
2021/06/02 08:54:24;;;;;;;6.28;2.68;;;;;;;21.01;34.10;101158.70;124921;1103;103238;-85
2021/06/02 08:56:52;;;;;;;3.93;2.73;;;;;;;20.99;35.03;101157.90;125429;1096;103096;-84
2021/06/02 08:59:34;;;;;;;7.50;2.80;;;;;;;20.95;34.52;101157.23;126150;1104;102948;-83
2021/06/02 09:02:02;;;;;;;7.20;2.40;;;;;;;21.03;34.20;101154.94;125863;1100;103104;-83
2021/06/02 09:04:32;;;;;;;3.97;2.50;;;;;;;21.07;33.51;101152.05;125268;1096;103057;-85
2021/06/02 09:07:05;;;;;;;3.77;2.60;;;;;;;21.09;32.73;101150.98;125201;1096;103241;-83
2021/06/02 09:09:33;;;;;;;4.25;1.90;;;;;;;21.00;31.34;101152.39;125436;1096;103058;-84
2021/06/02 09:12:09;;;;;;;4.75;2.25;;;;;;;20.92;32.65;101159.23;125385;1101;103224;-88
2021/06/02 09:14:38;;;;;;;4.80;1.93;;;;;;;20.95;32.80;101162.64;125392;1096;103054;-92
2021/06/02 09:17:11;;;;;;;2.17;1.97;;;;;;;20.82;31.46;101165.17;125534;1101;103171;-84
2021/06/02 09:19:42;;;;;;;8.93;2.70;;;;;;;20.82;32.21;101166.98;125434;1096;104984;-86
2021/06/02 09:22:12;;;;;;;3.73;2.03;;;;;;;20.85;31.04;101166.83;125361;1101;103073;-87
2021/06/02 09:24:59;;;;;;;3.20;1.83;;;;;;;20.74;30.65;101164.74;125165;1101;103089;-83
2021/06/02 09:27:53;;;;;;;6.40;2.70;;;;;;;20.74;31.94;101161.14;125528;1096;103811;-84
2021/06/02 09:30:38;;;;;;;3.85;2.18;;;;;;;20.86;31.15;101152.34;125450;1101;103100;-83
2021/06/02 09:33:08;;;;;;;4.03;1.83;;;;;;;20.97;31.49;101146.30;125314;1096;103084;-83
2021/06/02 09:35:40;;;;;;;3.80;2.00;;;;;;;21.10;31.23;101158.16;125376;1101;103164;-84
2021/06/02 09:38:09;;;;;;;3.05;1.95;;;;;;;21.18;30.78;101153.16;125537;1101;103362;-83
2021/06/02 09:40:39;;;;;;;6.13;2.37;;;;;;;21.23;31.10;101157.44;126073;1101;103032;-82
2021/06/02 09:43:31;;;;;;;8.33;2.33;;;;;;;21.23;31.53;101149.30;125902;1101;103518;-82
2021/06/02 09:46:09;;;;;;;3.70;2.10;;;;;;;21.30;30.62;101143.44;125184;1096;103497;-80
2021/06/02 09:48:52;;;;;;;3.60;2.28;;;;;;;21.20;31.15;101142.23;124822;1096;103208;-83
2021/06/02 09:51:39;;;;;;;3.90;2.00;;;;;;;21.16;31.13;101140.67;125107;1101;103075;-82
2021/06/02 09:54:08;;;;;;;3.17;1.93;;;;;;;21.31;31.01;101139.77;125168;1101;102972;-82
2021/06/02 09:56:50;;;;;;;3.20;2.00;;;;;;;21.38;30.27;101135.72;125024;1100;103228;-83
2021/06/02 09:59:18;;;;;;;2.87;2.30;;;;;;;21.29;30.21;101143.53;125335;1099;103062;-83
2021/06/02 10:01:57;;;;;;;2.50;1.80;;;;;;;21.41;30.60;101142.79;127667;1101;102622;-81
2021/06/02 10:04:30;;;;;;;3.20;2.20;;;;;;;21.43;30.35;101146.27;127828;1101;101733;-84
2021/06/02 10:06:59;;;;;;;3.78;1.93;;;;;;;21.41;29.69;101147.35;127872;1101;100777;-85
2021/06/02 10:09:30;;;;;;;3.50;2.27;;;;;;;21.44;30.02;101147.16;126119;1101;103016;-83
2021/06/02 10:11:59;;;;;;;3.85;2.00;;;;;;;21.41;29.32;101145.50;125119;1101;102982;-78
2021/06/02 10:14:27;;;;;;;5.18;2.83;;;;;;;21.74;29.81;101139.03;124990;1101;103135;-81
2021/06/02 10:16:55;;;;;;;2.90;1.87;;;;;;;23.38;28.19;101134.80;124927;1101;103222;-83
2021/06/02 10:19:36;;;;;;;2.30;1.40;;;;;;;23.92;26.67;101138.36;125239;1101;103150;-85
2021/06/02 10:22:18;;;;;;;3.38;1.80;;;;;;;24.00;25.92;101140.55;127639;1101;101127;-80
2021/06/02 10:24:50;;;;;;;3.18;2.23;;;;;;;24.89;25.13;101151.41;127822;1101;101624;-81
2021/06/02 10:27:19;;;;;;;2.30;1.83;;;;;;;24.93;26.12;101139.28;127383;1101;103009;-83
2021/06/02 10:29:48;;;;;;;4.03;2.13;;;;;;;24.77;24.86;101134.98;127730;1101;104915;-82
2021/06/02 10:32:16;;;;;;;11.33;2.10;;;;;;;24.95;25.74;101129.13;125228;1101;103091;-82
2021/06/02 10:34:45;;;;;;;2.80;1.73;;;;;;;25.12;25.17;101134.16;125146;1101;103078;-83
2021/06/02 10:37:17;;;;;;;4.20;2.30;;;;;;;25.66;24.34;101134.64;124743;1101;103211;-81
2021/06/02 10:40:04;;;;;;;4.10;2.07;;;;;;;26.63;24.29;101134.18;127575;1104;101381;-80
2021/06/02 10:42:38;;;;;;;4.08;2.35;;;;;;;27.83;23.45;101126.77;127489;1105;101600;-83
2021/06/02 10:45:44;;;;;;;2.10;1.50;;;;;;;29.07;20.41;101120.27;127495;1104;101916;-82
2021/06/02 10:48:12;;;;;;;9.05;1.75;;;;;;;30.14;21.69;101125.64;127456;1104;101023;-85
2021/06/02 10:50:53;;;;;;;1.90;1.63;;;;;;;29.78;19.17;101121.84;127538;1104;101246;-82
2021/06/02 10:53:24;;;;;;;3.93;2.10;;;;;;;29.89;18.75;101124.42;127417;1105;101131;-84
2021/06/02 10:55:53;;;;;;;9.28;1.45;;;;;;;30.57;18.37;101122.43;124998;1104;103205;-86
2021/06/02 10:58:35;;;;;;;3.60;1.80;;;;;;;29.87;19.01;101123.73;125094;1104;103152;-82
2021/06/02 11:01:05;;;;;;;3.25;1.35;;;;;;;28.76;20.12;101123.98;124927;1105;103247;-83
2021/06/02 11:04:06;;;;;;;1.88;1.53;;;;;;;27.61;20.66;101122.30;124599;1104;103062;-80
2021/06/02 11:06:35;;;;;;;3.10;2.48;;;;;;;27.08;22.04;101123.15;124445;1100;102979;-95
2021/06/02 11:09:06;;;;;;;4.58;1.60;;;;;;;26.42;21.31;101117.69;125014;1100;103701;-81
2021/06/02 11:11:49;;;;;;;7.20;2.10;;;;;;;25.86;22.74;101119.42;124983;1100;103153;-84
2021/06/02 11:14:17;;;;;;;4.83;2.77;;;;;;;25.77;23.43;101122.88;124978;1104;103534;-81
2021/06/02 11:16:48;;;;;;;11.27;2.33;;;;;;;25.73;23.98;101130.43;124892;1104;103204;-86
2021/06/02 11:19:18;;;;;;;3.20;2.00;;;;;;;25.11;22.60;101128.83;125293;1101;102991;-82
2021/06/02 11:22:00;;;;;;;4.20;1.80;;;;;;;24.71;23.65;101132.70;127788;1101;100952;-84
2021/06/02 11:24:43;;;;;;;3.03;1.70;;;;;;;24.84;24.66;101130.80;127880;1101;101045;-93
2021/06/02 11:27:14;;;;;;;2.77;1.97;;;;;;;24.85;24.21;101129.81;127315;1096;103081;-86
2021/06/02 11:29:57;;;;;;;3.93;2.15;;;;;;;24.76;23.62;101140.55;125222;1096;103065;-84
2021/06/02 11:32:29;;;;;;;6.33;1.93;;;;;;;24.37;23.54;101137.89;125359;1096;103219;-87
2021/06/02 11:35:01;;;;;;;4.60;2.20;;;;;;;24.09;23.59;101136.31;125460;1101;103166;-85
2021/06/02 11:37:30;;;;;;;3.30;2.20;;;;;;;23.85;25.75;101143.34;126462;1101;103115;-84
2021/06/02 11:40:00;;;;;;;4.00;2.30;;;;;;;23.70;25.21;101137.13;125864;1101;103222;-84
2021/06/02 11:42:43;;;;;;;3.13;2.83;;;;;;;23.48;25.53;101135.02;127896;1101;101225;-83
2021/06/02 11:45:12;;;;;;;3.80;1.90;;;;;;;23.38;26.65;101140.23;127666;1101;101581;-87
2021/06/02 11:47:45;;;;;;;2.67;1.80;;;;;;;23.27;26.71;101140.11;125442;1101;103148;-83
2021/06/02 11:50:26;;;;;;;2.93;2.17;;;;;;;23.14;26.67;101140.06;127831;1101;101141;-83
2021/06/02 11:53:02;;;;;;;3.30;2.33;;;;;;;22.87;26.18;101132.77;125545;1101;103144;-86
2021/06/02 11:55:31;;;;;;;8.17;2.93;;;;;;;22.79;26.91;101128.80;125387;1101;103075;-84